createdAt,value
2023-03-26T00:00:15.666Z,94.22
2023-03-26T00:01:05.891Z,94.08
2023-03-26T00:01:52.952Z,94.18
2023-03-26T00:02:40.087Z,94.17
2023-03-26T00:03:28.016Z,93.92
2023-03-26T00:04:14.930Z,92.84
2023-03-26T00:05:01.928Z,92.70
2023-03-26T00:05:49.076Z,92.58
2023-03-26T00:06:39.848Z,92.89
2023-03-26T00:07:28.157Z,93.07
2023-03-26T00:08:17.208Z,93.38
2023-03-26T00:09:05.324Z,93.41
2023-03-26T00:09:53.248Z,93.60
2023-03-26T00:10:41.043Z,93.73
2023-03-26T00:11:29.428Z,94.89
2023-03-26T00:12:16.367Z,94.94
2023-03-26T00:13:04.127Z,95.58
2023-03-26T00:13:53.770Z,96.02
2023-03-26T00:14:41.142Z,96.69
2023-03-26T00:15:28.046Z,95.89
2023-03-26T00:16:18.470Z,95.21
2023-03-26T00:17:05.623Z,96.16
2023-03-26T00:17:54.435Z,96.30
2023-03-26T00:18:42.781Z,96.12
2023-03-26T00:19:30.374Z,96.88
2023-03-26T00:20:17.378Z,96.76
2023-03-26T00:21:06.045Z,97.13
2023-03-26T00:21:53.451Z,98.29
2023-03-26T00:22:41.789Z,99.73
2023-03-26T00:23:29.819Z,99.63
2023-03-26T00:24:17.635Z,98.83
2023-03-26T00:25:05.854Z,98.43
2023-03-26T00:25:54.732Z,97.65
2023-03-26T00:26:42.342Z,97.46
2023-03-26T00:27:29.435Z,98.85
2023-03-26T00:28:17.417Z,97.60
2023-03-26T00:29:04.607Z,98.75
2023-03-26T00:29:52.097Z,97.37
2023-03-26T00:30:41.984Z,96.05
2023-03-26T00:31:28.985Z,95.93
2023-03-26T00:32:17.035Z,96.25
2023-03-26T00:33:04.227Z,96.62
2023-03-26T00:33:54.529Z,95.57
2023-03-26T00:34:41.678Z,94.79
2023-03-26T00:35:30.122Z,95.27
2023-03-26T00:36:17.885Z,96.36
2023-03-26T00:37:05.281Z,97.13
2023-03-26T00:37:53.617Z,96.80
2023-03-26T00:38:41.659Z,97.25
2023-03-26T00:39:29.670Z,97.81
2023-03-26T00:40:16.630Z,97.66
2023-03-26T00:41:06.296Z,97.56
2023-03-26T00:41:54.790Z,98.03
2023-03-26T00:42:42.716Z,97.96
2023-03-26T00:43:33.027Z,97.31
2023-03-26T00:44:21.072Z,97.56
2023-03-26T00:45:08.429Z,98.00
2023-03-26T00:45:56.087Z,98.39
2023-03-26T00:46:43.131Z,98.42
2023-03-26T00:47:31.122Z,98.32
2023-03-26T00:48:18.836Z,98.77
2023-03-26T00:49:05.805Z,98.73
2023-03-26T00:49:52.710Z,98.76
2023-03-26T00:50:40.043Z,99.13
2023-03-26T00:51:28.393Z,99.25
2023-03-26T00:52:19.180Z,99.14
2023-03-26T00:53:06.065Z,98.70
2023-03-26T00:53:53.056Z,98.12
2023-03-26T00:54:40.430Z,98.20
2023-03-26T00:55:27.343Z,98.37
2023-03-26T00:56:14.553Z,98.33
2023-03-26T00:57:01.521Z,97.42
2023-03-26T00:57:48.501Z,97.36
2023-03-26T00:58:35.714Z,97.56
2023-03-26T00:59:23.443Z,99.00
2023-03-26T01:00:15.379Z,99.36
2023-03-26T01:01:08.270Z,99.84
2023-03-26T01:01:55.240Z,100.00
2023-03-26T01:02:45.351Z,100.00
2023-03-26T01:03:35.187Z,100.00
2023-03-26T01:04:31.070Z,100.00
2023-03-26T01:05:48.953Z,100.00
2023-03-26T01:06:38.134Z,100.00
2023-03-26T01:07:29.215Z,100.00
2023-03-26T01:08:18.933Z,100.00
2023-03-26T01:09:14.695Z,100.00
2023-03-26T01:10:02.070Z,100.00
2023-03-26T01:10:54.291Z,100.00
2023-03-26T01:11:41.370Z,100.00
2023-03-26T01:12:32.210Z,100.00
2023-03-26T01:13:24.030Z,100.00
2023-03-26T01:14:18.133Z,100.00
2023-03-26T01:15:05.688Z,100.00
2023-03-26T01:15:53.202Z,100.00
2023-03-26T01:16:45.288Z,100.00
2023-03-26T01:17:34.511Z,100.00
2023-03-26T01:18:26.526Z,100.00
2023-03-26T01:19:42.454Z,100.00
2023-03-26T01:20:30.645Z,100.00
2023-03-26T01:21:23.337Z,100.00
2023-03-26T01:22:14.940Z,100.00
2023-03-26T01:23:08.017Z,100.00
2023-03-26T01:24:02.781Z,100.00
2023-03-26T01:24:54.109Z,100.00
2023-03-26T01:25:45.588Z,100.00
2023-03-26T01:27:10.059Z,100.00
2023-03-26T01:27:57.273Z,100.00
2023-03-26T01:28:44.200Z,100.00
2023-03-26T01:29:44.389Z,100.00
2023-03-26T01:30:42.510Z,100.00
2023-03-26T01:31:37.223Z,100.00
2023-03-26T01:32:47.802Z,100.00
2023-03-26T01:33:46.165Z,100.00
2023-03-26T01:35:00.812Z,100.00
2023-03-26T01:35:54.384Z,100.00
2023-03-26T01:36:56.700Z,100.00
2023-03-26T01:37:58.887Z,100.00
2023-03-26T01:39:06.141Z,100.00
2023-03-26T01:39:58.501Z,100.00
2023-03-26T01:40:58.941Z,100.00
2023-03-26T01:41:49.410Z,100.00
2023-03-26T01:43:07.048Z,100.00
2023-03-26T01:44:19.560Z,100.00
2023-03-26T01:45:17.589Z,100.00
2023-03-26T01:46:07.547Z,100.00
2023-03-26T01:46:54.863Z,100.00
2023-03-26T01:47:42.608Z,100.00
2023-03-26T01:48:40.739Z,100.00
2023-03-26T01:49:31.659Z,100.00
2023-03-26T01:50:18.618Z,100.00
2023-03-26T01:51:07.295Z,100.00
2023-03-26T01:51:56.794Z,100.00
2023-03-26T01:52:43.741Z,100.00
2023-03-26T01:53:32.023Z,100.00
2023-03-26T01:54:21.382Z,100.00
2023-03-26T01:55:12.941Z,100.00
2023-03-26T01:56:11.077Z,100.00
2023-03-26T01:57:14.961Z,100.00
2023-03-26T01:58:17.400Z,100.00
2023-03-26T01:59:29.188Z,100.00
2023-03-26T02:00:16.563Z,100.00
2023-03-26T02:01:18.214Z,100.00
2023-03-26T02:02:12.071Z,100.00
2023-03-26T02:03:02.152Z,100.00
2023-03-26T02:03:59.802Z,100.00
2023-03-26T02:04:57.989Z,100.00
2023-03-26T02:05:55.088Z,100.00
2023-03-26T02:06:47.078Z,100.00
2023-03-26T02:07:44.868Z,100.00
2023-03-26T02:08:41.487Z,100.00
2023-03-26T02:09:32.341Z,100.00
2023-03-26T02:10:34.445Z,100.00
2023-03-26T02:11:23.228Z,100.00
2023-03-26T02:12:10.446Z,100.00
2023-03-26T02:12:58.318Z,100.00
2023-03-26T02:13:46.424Z,100.00
2023-03-26T02:14:33.438Z,100.00
2023-03-26T02:15:20.933Z,100.00
2023-03-26T02:16:10.113Z,100.00
2023-03-26T02:16:59.128Z,100.00
2023-03-26T02:17:47.186Z,100.00
2023-03-26T02:18:36.993Z,100.00
2023-03-26T02:19:24.833Z,100.00
2023-03-26T02:20:14.528Z,100.00
2023-03-26T02:21:02.091Z,100.00
2023-03-26T02:21:52.338Z,100.00
2023-03-26T02:22:41.194Z,100.00
2023-03-26T02:23:29.871Z,100.00
2023-03-26T02:24:17.266Z,100.00
2023-03-26T02:25:04.315Z,100.00
2023-03-26T02:25:51.280Z,100.00
2023-03-26T02:26:38.470Z,100.00
2023-03-26T02:27:25.408Z,100.00
2023-03-26T02:28:12.323Z,100.00
2023-03-26T02:28:59.853Z,100.00
2023-03-26T02:29:47.934Z,100.00
2023-03-26T02:30:34.980Z,100.00
2023-03-26T02:31:22.105Z,100.00
2023-03-26T02:32:13.463Z,100.00
2023-03-26T02:33:00.497Z,100.00
2023-03-26T02:33:47.858Z,100.00
2023-03-26T02:34:34.762Z,100.00
2023-03-26T02:35:22.266Z,100.00
2023-03-26T02:36:10.995Z,100.00
2023-03-26T02:36:58.364Z,100.00
2023-03-26T02:37:47.159Z,100.00
2023-03-26T02:38:35.429Z,100.00
2023-03-26T02:39:22.379Z,100.00
2023-03-26T02:40:11.956Z,100.00
2023-03-26T02:40:58.864Z,100.00
2023-03-26T02:41:45.769Z,100.00
2023-03-26T02:42:33.520Z,100.00
2023-03-26T02:43:20.836Z,100.00
2023-03-26T02:44:07.744Z,100.00
2023-03-26T02:44:54.655Z,100.00
2023-03-26T02:45:41.576Z,100.00
2023-03-26T02:46:28.603Z,100.00
2023-03-26T02:47:15.556Z,100.00
2023-03-26T02:48:02.703Z,100.00
2023-03-26T02:48:50.144Z,100.00
2023-03-26T02:49:37.054Z,100.00
2023-03-26T02:50:24.307Z,100.00
2023-03-26T02:51:11.213Z,100.00
2023-03-26T02:51:58.376Z,100.00
2023-03-26T02:52:45.621Z,100.00
2023-03-26T02:53:33.349Z,100.00
2023-03-26T02:54:20.713Z,100.00
2023-03-26T02:55:07.936Z,100.00
2023-03-26T02:55:55.012Z,100.00
2023-03-26T02:56:42.072Z,100.00
2023-03-26T02:57:29.273Z,100.00
2023-03-26T02:58:17.665Z,100.00
2023-03-26T02:59:04.658Z,100.00
2023-03-26T02:59:53.050Z,100.00
2023-03-26T03:00:40.352Z,100.00
2023-03-26T03:01:31.117Z,100.00
2023-03-26T03:02:18.538Z,100.00
2023-03-26T03:03:07.038Z,100.00
2023-03-26T03:03:54.454Z,100.00
2023-03-26T03:04:41.382Z,100.00
2023-03-26T03:05:29.073Z,100.00
2023-03-26T03:06:20.236Z,100.00
2023-03-26T03:07:07.954Z,100.00
2023-03-26T03:07:58.481Z,100.00
2023-03-26T03:08:49.092Z,100.00
2023-03-26T03:09:35.845Z,100.00
2023-03-26T03:10:23.351Z,100.00
2023-03-26T03:11:12.622Z,100.00
2023-03-26T03:12:07.657Z,100.00
2023-03-26T03:12:55.143Z,100.00
2023-03-26T03:13:42.843Z,100.00
2023-03-26T03:14:29.724Z,100.00
2023-03-26T03:15:16.645Z,100.00
2023-03-26T03:16:03.964Z,100.00
2023-03-26T03:16:50.971Z,100.00
2023-03-26T03:17:38.019Z,100.00
2023-03-26T03:18:43.449Z,100.00
2023-03-26T03:19:30.366Z,100.00
2023-03-26T03:20:17.990Z,100.00
2023-03-26T03:21:06.445Z,100.00
2023-03-26T03:21:53.406Z,100.00
2023-03-26T03:22:41.034Z,100.00
2023-03-26T03:23:27.975Z,100.00
2023-03-26T03:24:18.691Z,100.00
2023-03-26T03:25:09.225Z,100.00
2023-03-26T03:25:57.848Z,100.00
2023-03-26T03:26:46.048Z,100.00
2023-03-26T03:27:32.921Z,100.00
2023-03-26T03:28:20.321Z,100.00
2023-03-26T03:29:07.307Z,100.00
2023-03-26T03:29:56.017Z,100.00
2023-03-26T03:30:43.094Z,100.00
2023-03-26T03:31:30.076Z,100.00
2023-03-26T03:32:17.029Z,100.00
2023-03-26T03:33:04.254Z,100.00
2023-03-26T03:33:51.910Z,100.00
2023-03-26T03:34:39.105Z,100.00
2023-03-26T03:35:27.890Z,100.00
2023-03-26T03:36:20.095Z,100.00
2023-03-26T03:37:08.768Z,100.00
2023-03-26T03:37:57.058Z,100.00
2023-03-26T03:38:44.398Z,100.00
2023-03-26T03:39:31.419Z,100.00
2023-03-26T03:40:18.512Z,100.00
2023-03-26T03:41:05.959Z,100.00
2023-03-26T03:41:52.835Z,100.00
2023-03-26T03:42:39.811Z,100.00
2023-03-26T03:43:27.729Z,100.00
2023-03-26T03:44:14.608Z,100.00
2023-03-26T03:45:02.350Z,100.00
2023-03-26T03:45:49.277Z,100.00
2023-03-26T03:46:36.443Z,100.00
2023-03-26T03:47:23.401Z,100.00
2023-03-26T03:48:10.654Z,100.00
2023-03-26T03:48:57.643Z,100.00
2023-03-26T03:49:44.663Z,100.00
2023-03-26T03:50:34.294Z,100.00
2023-03-26T03:51:22.472Z,100.00
2023-03-26T03:52:09.338Z,100.00
2023-03-26T03:52:56.409Z,100.00
2023-03-26T03:53:43.335Z,100.00
2023-03-26T03:54:30.651Z,100.00
2023-03-26T03:55:17.558Z,100.00
2023-03-26T03:56:10.570Z,100.00
2023-03-26T03:56:57.676Z,100.00
2023-03-26T03:57:44.785Z,100.00
2023-03-26T03:58:31.776Z,100.00
2023-03-26T03:59:18.634Z,100.00
2023-03-26T04:00:08.320Z,100.00
2023-03-26T04:01:01.086Z,100.00
2023-03-26T04:01:48.735Z,100.00
2023-03-26T04:02:35.931Z,100.00
2023-03-26T04:03:33.370Z,100.00
2023-03-26T04:04:22.303Z,100.00
2023-03-26T04:05:11.791Z,100.00
2023-03-26T04:05:58.760Z,100.00
2023-03-26T04:06:45.759Z,100.00
2023-03-26T04:07:33.277Z,100.00
2023-03-26T04:08:20.439Z,100.00
2023-03-26T04:09:07.378Z,100.00
2023-03-26T04:09:54.553Z,100.00
2023-03-26T04:10:43.932Z,100.00
2023-03-26T04:11:31.018Z,100.00
2023-03-26T04:12:18.159Z,100.00
2023-03-26T04:13:05.041Z,100.00
2023-03-26T04:13:51.981Z,100.00
2023-03-26T04:14:39.018Z,100.00
2023-03-26T04:15:26.148Z,100.00
2023-03-26T04:16:13.029Z,100.00
2023-03-26T04:16:59.975Z,100.00
2023-03-26T04:17:47.038Z,100.00
2023-03-26T04:18:34.230Z,100.00
2023-03-26T04:19:21.582Z,100.00
2023-03-26T04:20:14.941Z,100.00
2023-03-26T04:21:02.691Z,100.00
2023-03-26T04:21:49.800Z,100.00
2023-03-26T04:22:36.776Z,100.00
2023-03-26T04:23:23.888Z,100.00
2023-03-26T04:24:11.255Z,100.00
2023-03-26T04:24:58.176Z,100.00
2023-03-26T04:25:48.623Z,100.00
2023-03-26T04:26:35.859Z,100.00
2023-03-26T04:27:27.479Z,100.00
2023-03-26T04:28:28.482Z,100.00
2023-03-26T04:29:17.362Z,100.00
2023-03-26T04:30:06.656Z,100.00
2023-03-26T04:30:54.848Z,100.00
2023-03-26T04:31:43.428Z,100.00
2023-03-26T04:32:34.480Z,100.00
2023-03-26T04:33:21.728Z,100.00
2023-03-26T04:34:18.901Z,100.00
2023-03-26T04:35:06.972Z,100.00
2023-03-26T04:35:54.727Z,100.00
2023-03-26T04:36:46.539Z,100.00
2023-03-26T04:37:41.846Z,100.00
2023-03-26T04:38:33.692Z,100.00
2023-03-26T04:39:29.468Z,100.00
2023-03-26T04:40:22.105Z,100.00
2023-03-26T04:41:13.775Z,100.00
2023-03-26T04:42:00.997Z,100.00
2023-03-26T04:42:48.066Z,100.00
2023-03-26T04:43:47.436Z,100.00
2023-03-26T04:44:35.137Z,100.00
2023-03-26T04:45:23.044Z,100.00
2023-03-26T04:46:10.725Z,100.00
2023-03-26T04:46:57.640Z,100.00
2023-03-26T04:47:46.843Z,100.00
2023-03-26T04:48:33.788Z,100.00
2023-03-26T04:49:20.881Z,100.00
2023-03-26T04:50:09.644Z,100.00
2023-03-26T04:50:56.908Z,100.00
2023-03-26T04:51:46.408Z,100.00
2023-03-26T04:52:33.763Z,100.00
2023-03-26T04:53:24.504Z,100.00
2023-03-26T04:54:12.938Z,100.00
2023-03-26T04:55:00.502Z,100.00
2023-03-26T04:56:08.689Z,100.00
2023-03-26T04:57:04.175Z,100.00
2023-03-26T04:57:55.249Z,100.00
2023-03-26T04:58:42.209Z,100.00
2023-03-26T04:59:35.201Z,100.00
2023-03-26T05:00:22.457Z,100.00
2023-03-26T05:01:11.369Z,100.00
2023-03-26T05:02:00.278Z,100.00
2023-03-26T05:02:50.645Z,100.00
2023-03-26T05:03:41.564Z,100.00
2023-03-26T05:04:32.256Z,100.00
2023-03-26T05:05:19.093Z,100.00
2023-03-26T05:06:06.240Z,100.00
2023-03-26T05:06:53.926Z,100.00
2023-03-26T05:07:42.367Z,100.00
2023-03-26T05:08:29.732Z,100.00
2023-03-26T05:09:16.750Z,100.00
2023-03-26T05:10:05.200Z,100.00
2023-03-26T05:10:52.084Z,100.00
2023-03-26T05:11:39.109Z,100.00
2023-03-26T05:12:26.006Z,100.00
2023-03-26T05:13:12.885Z,100.00
2023-03-26T05:13:59.838Z,100.00
2023-03-26T05:14:46.807Z,100.00
2023-03-26T05:15:33.725Z,100.00
2023-03-26T05:16:20.800Z,100.00
2023-03-26T05:17:11.042Z,100.00
2023-03-26T05:17:58.456Z,100.00
2023-03-26T05:18:46.915Z,100.00
2023-03-26T05:19:33.898Z,100.00
2023-03-26T05:20:24.196Z,100.00
2023-03-26T05:21:11.387Z,100.00
2023-03-26T05:21:58.424Z,100.00
2023-03-26T05:22:45.365Z,100.00
2023-03-26T05:23:32.265Z,100.00
2023-03-26T05:24:20.097Z,100.00
2023-03-26T05:25:07.810Z,100.00
2023-03-26T05:25:54.842Z,100.00
2023-03-26T05:26:41.729Z,100.00
2023-03-26T05:27:28.598Z,100.00
2023-03-26T05:28:15.638Z,100.00
2023-03-26T05:29:03.356Z,100.00
2023-03-26T05:29:50.533Z,100.00
2023-03-26T05:30:37.399Z,100.00
2023-03-26T05:31:25.396Z,100.00
2023-03-26T05:32:12.873Z,100.00
2023-03-26T05:32:59.906Z,100.00
2023-03-26T05:33:47.670Z,100.00
2023-03-26T05:34:34.656Z,100.00
2023-03-26T05:35:21.918Z,100.00
2023-03-26T05:36:13.667Z,100.00
2023-03-26T05:37:00.853Z,100.00
2023-03-26T05:37:49.791Z,100.00
2023-03-26T05:38:37.366Z,100.00
2023-03-26T05:39:26.588Z,100.00
2023-03-26T05:40:17.188Z,100.00
2023-03-26T05:41:04.926Z,100.00
2023-03-26T05:41:53.202Z,100.00
2023-03-26T05:42:40.826Z,100.00
2023-03-26T05:43:28.912Z,100.00
2023-03-26T05:44:15.867Z,100.00
2023-03-26T05:45:02.818Z,100.00
2023-03-26T05:45:49.749Z,100.00
2023-03-26T05:46:37.091Z,100.00
2023-03-26T05:47:24.013Z,100.00
2023-03-26T05:48:11.098Z,100.00
2023-03-26T05:48:58.049Z,100.00
2023-03-26T05:49:45.000Z,100.00
2023-03-26T05:50:31.926Z,100.00
2023-03-26T05:51:18.899Z,100.00
2023-03-26T05:52:06.862Z,100.00
2023-03-26T05:52:53.819Z,100.00
2023-03-26T05:53:40.834Z,100.00
2023-03-26T05:54:27.897Z,100.00
2023-03-26T05:55:14.859Z,100.00
2023-03-26T05:56:02.274Z,100.00
2023-03-26T05:56:49.371Z,100.00
2023-03-26T05:57:36.653Z,100.00
2023-03-26T05:58:34.133Z,100.00
2023-03-26T05:59:21.086Z,100.00
2023-03-26T06:00:12.269Z,100.00
2023-03-26T06:01:06.048Z,100.00
2023-03-26T06:01:54.769Z,100.00
2023-03-26T06:02:44.072Z,100.00
2023-03-26T06:03:31.873Z,100.00
2023-03-26T06:04:19.003Z,100.00
2023-03-26T06:05:06.326Z,100.00
2023-03-26T06:05:53.227Z,100.00
2023-03-26T06:06:40.247Z,100.00
2023-03-26T06:07:27.361Z,100.00
2023-03-26T06:08:14.361Z,100.00
2023-03-26T06:09:03.049Z,100.00
2023-03-26T06:09:49.976Z,100.00
2023-03-26T06:10:39.796Z,100.00
2023-03-26T06:11:26.848Z,100.00
2023-03-26T06:12:14.187Z,100.00
2023-03-26T06:13:01.153Z,100.00
2023-03-26T06:13:50.535Z,100.00
2023-03-26T06:14:37.866Z,100.00
2023-03-26T06:15:25.123Z,100.00
2023-03-26T06:16:26.398Z,100.00
2023-03-26T06:17:14.340Z,100.00
2023-03-26T06:18:01.575Z,100.00
2023-03-26T06:18:48.893Z,100.00
2023-03-26T06:19:43.694Z,100.00
2023-03-26T06:20:30.689Z,100.00
2023-03-26T06:21:18.565Z,100.00
2023-03-26T06:22:05.816Z,100.00
2023-03-26T06:22:52.681Z,100.00
2023-03-26T06:23:39.565Z,100.00
2023-03-26T06:24:26.597Z,100.00
2023-03-26T06:25:13.496Z,100.00
2023-03-26T06:26:00.374Z,100.00
2023-03-26T06:26:47.743Z,100.00
2023-03-26T06:27:35.640Z,100.00
2023-03-26T06:28:22.661Z,100.00
2023-03-26T06:29:09.609Z,100.00
2023-03-26T06:29:57.729Z,100.00
2023-03-26T06:30:44.944Z,100.00
2023-03-26T06:31:31.803Z,100.00
2023-03-26T06:32:20.617Z,100.00
2023-03-26T06:33:08.601Z,100.00
2023-03-26T06:33:55.449Z,100.00
2023-03-26T06:34:42.678Z,100.00
2023-03-26T06:35:30.867Z,100.00
2023-03-26T06:36:17.890Z,100.00
2023-03-26T06:37:08.568Z,100.00
2023-03-26T06:38:10.038Z,100.00
2023-03-26T06:38:57.007Z,100.00
2023-03-26T06:39:44.319Z,100.00
2023-03-26T06:40:31.191Z,99.90
2023-03-26T06:41:18.184Z,99.57
2023-03-26T06:42:05.266Z,99.45
2023-03-26T06:43:09.478Z,98.83
2023-03-26T06:43:57.377Z,98.21
2023-03-26T06:44:44.249Z,98.57
2023-03-26T06:45:33.144Z,98.08
2023-03-26T06:47:07.020Z,96.72
2023-03-26T06:47:53.831Z,96.11
2023-03-26T06:48:42.306Z,96.91
2023-03-26T06:49:29.322Z,97.09
2023-03-26T06:50:16.457Z,97.08
2023-03-26T06:51:03.619Z,96.84
2023-03-26T06:51:55.047Z,98.04
2023-03-26T06:52:47.641Z,98.60
2023-03-26T06:53:34.577Z,97.88
2023-03-26T06:54:21.481Z,99.29
2023-03-26T06:55:10.579Z,98.39
2023-03-26T06:55:57.425Z,97.67
2023-03-26T06:56:45.182Z,96.98
2023-03-26T06:57:32.252Z,96.90
2023-03-26T06:58:19.295Z,97.26
2023-03-26T06:59:06.397Z,96.72
2023-03-26T06:59:53.214Z,95.66
2023-03-26T07:00:40.751Z,95.85
2023-03-26T07:01:27.634Z,96.09
2023-03-26T07:02:14.517Z,95.26
2023-03-26T07:03:04.413Z,94.65
2023-03-26T07:03:51.534Z,94.21
2023-03-26T07:04:38.809Z,94.18
2023-03-26T07:05:25.649Z,93.47
2023-03-26T07:06:12.494Z,93.30
2023-03-26T07:06:59.531Z,91.98
2023-03-26T07:07:47.441Z,91.85
2023-03-26T07:08:34.473Z,92.14
2023-03-26T07:09:21.778Z,90.67
2023-03-26T07:10:09.410Z,89.53
2023-03-26T07:10:57.301Z,89.20
2023-03-26T07:11:44.488Z,88.57
2023-03-26T07:12:31.477Z,88.89
2023-03-26T07:13:18.297Z,88.82
2023-03-26T07:14:05.373Z,86.70
2023-03-26T07:14:52.381Z,85.44
2023-03-26T07:15:39.262Z,85.82
2023-03-26T07:16:26.222Z,86.38
2023-03-26T07:17:13.113Z,86.23
2023-03-26T07:18:00.937Z,85.50
2023-03-26T07:18:51.645Z,84.84
2023-03-26T07:19:41.532Z,85.53
2023-03-26T07:20:28.895Z,85.59
2023-03-26T07:21:15.962Z,84.57
2023-03-26T07:22:03.323Z,84.26
2023-03-26T07:22:50.682Z,84.26
2023-03-26T07:23:37.858Z,84.53
2023-03-26T07:24:25.367Z,84.13
2023-03-26T07:25:14.134Z,85.04
2023-03-26T07:26:03.133Z,84.58
2023-03-26T07:27:11.219Z,83.15
2023-03-26T07:28:20.784Z,84.24
2023-03-26T07:29:16.286Z,83.19
2023-03-26T07:30:09.991Z,82.20
2023-03-26T07:31:05.495Z,84.41
2023-03-26T07:32:04.283Z,86.49
2023-03-26T07:32:55.514Z,86.07
2023-03-26T07:34:04.210Z,86.63
2023-03-26T07:34:58.633Z,86.82
2023-03-26T07:35:51.062Z,85.80
2023-03-26T07:36:58.088Z,87.13
2023-03-26T07:37:56.329Z,87.96
2023-03-26T07:39:09.650Z,87.17
2023-03-26T07:40:03.932Z,87.19
2023-03-26T07:40:57.709Z,86.91
2023-03-26T07:42:04.976Z,87.61
2023-03-26T07:43:06.654Z,86.97
2023-03-26T07:44:25.559Z,87.60
2023-03-26T07:45:34.069Z,87.44
2023-03-26T07:46:27.850Z,86.64
2023-03-26T07:47:26.372Z,86.57
2023-03-26T07:48:18.048Z,86.76
2023-03-26T07:49:05.262Z,87.78
2023-03-26T07:49:57.887Z,88.28
2023-03-26T07:50:45.605Z,86.97
2023-03-26T07:51:33.169Z,87.43
2023-03-26T07:52:20.296Z,86.57
2023-03-26T07:53:07.776Z,86.83
2023-03-26T07:53:55.217Z,86.71
2023-03-26T07:54:42.327Z,86.31
2023-03-26T07:55:29.538Z,85.96
2023-03-26T07:56:19.878Z,86.36
2023-03-26T07:57:11.255Z,85.26
2023-03-26T07:58:27.238Z,85.13
2023-03-26T07:59:23.129Z,85.24
2023-03-26T08:00:14.407Z,84.50
2023-03-26T08:01:19.600Z,85.48
2023-03-26T08:02:16.584Z,85.39
2023-03-26T08:03:29.441Z,84.49
2023-03-26T08:04:44.358Z,84.09
2023-03-26T08:05:34.885Z,84.18
2023-03-26T08:06:37.541Z,82.03
2023-03-26T08:07:40.225Z,82.28
2023-03-26T08:08:34.076Z,81.06
2023-03-26T08:09:59.328Z,80.89
2023-03-26T08:11:04.359Z,79.54
2023-03-26T08:12:12.847Z,79.84
2023-03-26T08:13:19.525Z,80.02
2023-03-26T08:14:08.969Z,80.45
2023-03-26T08:15:01.255Z,79.84
2023-03-26T08:16:05.729Z,81.53
2023-03-26T08:17:36.966Z,80.74
2023-03-26T08:18:38.914Z,81.06
2023-03-26T08:19:31.914Z,79.57
2023-03-26T08:20:26.315Z,82.33
2023-03-26T08:21:25.716Z,80.22
2023-03-26T08:22:17.394Z,79.87
2023-03-26T08:23:23.896Z,79.57
2023-03-26T08:24:25.698Z,79.68
2023-03-26T08:25:37.372Z,80.21
2023-03-26T08:27:03.066Z,78.97
2023-03-26T08:27:59.052Z,80.04
2023-03-26T08:29:27.697Z,80.72
2023-03-26T08:30:19.804Z,81.33
2023-03-26T08:31:10.594Z,80.95
2023-03-26T08:31:57.788Z,81.49
2023-03-26T08:32:59.597Z,82.48
2023-03-26T08:33:46.597Z,83.05
2023-03-26T08:34:33.456Z,83.22
2023-03-26T08:35:20.398Z,82.93
2023-03-26T08:36:09.460Z,81.32
2023-03-26T08:36:56.334Z,81.46
2023-03-26T08:37:45.448Z,82.21
2023-03-26T08:38:32.508Z,81.83
2023-03-26T08:39:22.463Z,81.58
2023-03-26T08:40:09.886Z,81.56
2023-03-26T08:41:12.037Z,80.70
2023-03-26T08:42:17.377Z,79.98
2023-03-26T08:43:17.736Z,79.43
2023-03-26T08:44:22.643Z,79.54
2023-03-26T08:45:51.569Z,80.21
2023-03-26T08:47:10.474Z,80.80
2023-03-26T08:48:03.996Z,79.59
2023-03-26T08:49:25.910Z,79.07
2023-03-26T08:50:21.479Z,80.34
2023-03-26T08:51:23.195Z,79.07
2023-03-26T08:52:25.764Z,79.14
2023-03-26T08:53:50.050Z,79.04
2023-03-26T08:54:48.966Z,78.40
2023-03-26T08:55:44.265Z,77.01
2023-03-26T08:56:59.447Z,77.88
2023-03-26T08:58:09.197Z,76.69
2023-03-26T08:59:43.603Z,76.43
2023-03-26T09:00:52.347Z,76.07
2023-03-26T09:01:54.012Z,77.24
2023-03-26T09:03:01.755Z,75.69
2023-03-26T09:03:48.637Z,75.05
2023-03-26T09:05:05.965Z,75.64
2023-03-26T09:06:24.826Z,75.88
2023-03-26T09:07:48.274Z,75.48
2023-03-26T09:09:08.895Z,74.97
2023-03-26T09:10:09.617Z,73.84
2023-03-26T09:11:17.395Z,73.67
2023-03-26T09:12:35.477Z,73.84
2023-03-26T09:13:41.061Z,72.93
2023-03-26T09:15:06.586Z,72.81
2023-03-26T09:16:06.624Z,74.30
2023-03-26T09:17:22.643Z,74.78
2023-03-26T09:18:21.371Z,73.93
2023-03-26T09:19:23.467Z,73.54
2023-03-26T09:20:27.080Z,75.07
2023-03-26T09:21:47.822Z,74.12
2023-03-26T09:22:41.107Z,74.33
2023-03-26T09:23:52.863Z,75.39
2023-03-26T09:25:16.976Z,73.91
2023-03-26T09:26:19.165Z,72.50
2023-03-26T09:27:09.464Z,73.34
2023-03-26T09:28:02.509Z,73.56
2023-03-26T09:29:22.308Z,73.08
2023-03-26T09:30:31.849Z,73.18
2023-03-26T09:32:06.208Z,72.37
2023-03-26T09:33:17.158Z,70.06
2023-03-26T09:34:15.720Z,71.06
2023-03-26T09:35:14.747Z,72.35
2023-03-26T09:36:34.545Z,73.82
2023-03-26T09:37:56.257Z,73.55
2023-03-26T09:38:52.971Z,72.38
2023-03-26T09:39:53.869Z,73.37
2023-03-26T09:41:06.739Z,72.67
2023-03-26T09:42:05.809Z,71.99
2023-03-26T09:42:55.620Z,72.66
2023-03-26T09:44:12.937Z,70.98
2023-03-26T09:45:22.887Z,71.39
2023-03-26T09:46:41.459Z,72.56
2023-03-26T09:47:45.976Z,73.28
2023-03-26T09:48:33.233Z,73.26
2023-03-26T09:49:49.968Z,73.09
2023-03-26T09:50:59.964Z,74.03
2023-03-26T09:52:01.212Z,75.41
2023-03-26T09:52:50.741Z,74.82
2023-03-26T09:53:56.367Z,75.11
2023-03-26T09:55:28.626Z,75.62
2023-03-26T09:56:32.401Z,75.35
2023-03-26T09:57:40.924Z,75.71
2023-03-26T09:58:46.309Z,73.62
2023-03-26T10:00:03.368Z,72.12
2023-03-26T10:01:01.291Z,72.43
2023-03-26T10:02:08.766Z,71.98
2023-03-26T10:03:07.850Z,72.19
2023-03-26T10:04:33.593Z,72.70
2023-03-26T10:05:30.540Z,71.38
2023-03-26T10:06:36.935Z,71.32
2023-03-26T10:07:53.961Z,72.13
2023-03-26T10:09:22.219Z,71.25
2023-03-26T10:10:18.660Z,69.65
2023-03-26T10:11:16.580Z,69.03
2023-03-26T10:12:15.188Z,70.01
2023-03-26T10:13:14.782Z,70.00
2023-03-26T10:14:21.080Z,68.31
2023-03-26T10:15:32.159Z,70.13
2023-03-26T10:16:25.147Z,68.87
2023-03-26T10:17:39.966Z,67.97
2023-03-26T10:18:49.932Z,67.08
2023-03-26T10:20:09.943Z,65.08
2023-03-26T10:21:19.485Z,65.88
2023-03-26T10:22:35.012Z,64.66
2023-03-26T10:23:43.737Z,65.68
2023-03-26T10:24:39.648Z,67.05
2023-03-26T10:26:07.318Z,65.88
2023-03-26T10:27:09.019Z,67.00
2023-03-26T10:28:25.738Z,67.17
2023-03-26T10:29:53.439Z,67.31
2023-03-26T10:31:06.689Z,65.15
2023-03-26T10:32:21.381Z,65.19
2023-03-26T10:33:24.989Z,66.11
2023-03-26T10:34:19.417Z,66.84
2023-03-26T10:35:34.537Z,68.65
2023-03-26T10:36:30.010Z,68.99
2023-03-26T10:37:35.728Z,67.43
2023-03-26T10:38:36.456Z,66.38
2023-03-26T10:39:36.809Z,67.35
2023-03-26T10:40:43.489Z,66.77
2023-03-26T10:41:54.811Z,63.79
2023-03-26T10:42:44.665Z,61.82
2023-03-26T10:44:09.933Z,61.88
2023-03-26T10:45:22.189Z,61.33
2023-03-26T10:46:31.581Z,57.11
2023-03-26T10:47:54.348Z,57.42
2023-03-26T10:49:09.364Z,59.07
2023-03-26T10:50:16.947Z,57.28
2023-03-26T10:52:08.665Z,55.85
2023-03-26T10:53:14.215Z,54.96
2023-03-26T10:54:07.016Z,54.79
2023-03-26T10:55:25.339Z,55.18
2023-03-26T10:56:15.953Z,54.38
2023-03-26T10:57:18.580Z,53.28
2023-03-26T10:58:24.977Z,53.42
2023-03-26T10:59:16.578Z,53.58
2023-03-26T11:00:27.577Z,53.44
2023-03-26T11:01:33.171Z,46.29
2023-03-26T11:03:01.030Z,47.15
2023-03-26T11:03:54.448Z,46.92
2023-03-26T11:05:30.703Z,47.46
2023-03-26T11:06:45.948Z,47.78
2023-03-26T11:07:52.068Z,46.47
2023-03-26T11:08:52.278Z,49.50
2023-03-26T11:09:53.114Z,47.96
2023-03-26T11:10:52.310Z,47.37
2023-03-26T11:11:56.775Z,48.03
2023-03-26T11:13:32.255Z,48.46
2023-03-26T11:14:41.710Z,47.89
2023-03-26T11:15:32.601Z,49.37
2023-03-26T11:16:29.974Z,48.21
2023-03-26T11:17:40.883Z,46.76
2023-03-26T11:19:09.922Z,46.17
2023-03-26T11:20:05.994Z,46.53
2023-03-26T11:21:19.403Z,47.90